createdAt,value
2018-10-02T00:01:13.445Z,83.35
2018-10-02T00:03:45.117Z,83.36
2018-10-02T00:06:16.845Z,83.64
2018-10-02T00:08:48.888Z,83.36
2018-10-02T00:11:25.147Z,82.90
2018-10-02T00:14:01.646Z,83.79
2018-10-02T00:16:33.067Z,83.29
2018-10-02T00:19:04.944Z,82.86
2018-10-02T00:21:36.476Z,83.23
2018-10-02T00:24:08.178Z,83.76
2018-10-02T00:26:40.352Z,83.18
2018-10-02T00:29:12.303Z,83.42
2018-10-02T00:31:43.924Z,83.41
2018-10-02T00:34:15.360Z,83.04
2018-10-02T00:36:47.426Z,83.28
2018-10-02T00:39:19.238Z,83.13
2018-10-02T00:41:50.939Z,83.10
2018-10-02T00:44:24.210Z,83.90
2018-10-02T00:46:56.890Z,83.94
2018-10-02T00:49:28.900Z,84.10
2018-10-02T00:52:00.770Z,84.34
2018-10-02T00:54:32.657Z,84.62
2018-10-02T00:57:04.223Z,84.25
2018-10-02T00:59:36.052Z,84.45
2018-10-02T01:02:08.260Z,84.76
2018-10-02T01:04:40.403Z,84.89
2018-10-02T01:07:11.421Z,83.91
2018-10-02T01:09:43.493Z,84.14
2018-10-02T01:12:16.215Z,83.95
2018-10-02T01:14:48.238Z,83.29
2018-10-02T01:17:28.986Z,82.94
2018-10-02T01:20:01.683Z,83.58
2018-10-02T01:22:33.442Z,83.87
2018-10-02T01:25:05.337Z,84.93
2018-10-02T01:27:36.988Z,85.30
2018-10-02T01:30:09.017Z,84.74
2018-10-02T01:32:41.062Z,85.63
2018-10-02T01:35:12.647Z,85.81
2018-10-02T01:37:44.334Z,85.05
2018-10-02T01:43:20.976Z,84.61
2018-10-02T01:45:59.405Z,83.93
2018-10-02T01:48:30.772Z,85.28
2018-10-02T01:51:02.336Z,85.01
2018-10-02T01:53:34.675Z,84.84
2018-10-02T01:56:06.158Z,85.25
2018-10-02T01:58:37.604Z,84.45
2018-10-02T02:01:09.258Z,83.52
2018-10-02T02:03:41.763Z,83.93
2018-10-02T02:06:13.550Z,83.51
2018-10-02T02:08:44.921Z,83.78
2018-10-02T02:11:16.877Z,83.57
2018-10-02T02:13:48.744Z,83.81
2018-10-02T02:16:20.069Z,83.66
2018-10-02T02:18:51.879Z,82.96
2018-10-02T02:21:24.269Z,83.61
2018-10-02T02:23:56.397Z,84.19
2018-10-02T02:26:28.370Z,83.75
2018-10-02T02:29:00.204Z,84.59
2018-10-02T02:31:31.677Z,84.61
2018-10-02T02:34:03.953Z,84.60
2018-10-02T02:36:35.529Z,84.95
2018-10-02T02:39:07.810Z,84.89
2018-10-02T02:41:39.514Z,84.52
2018-10-02T02:44:10.758Z,84.67
2018-10-02T02:46:42.095Z,84.17
2018-10-02T02:49:18.023Z,84.68
2018-10-02T02:51:49.694Z,83.98
2018-10-02T02:54:21.021Z,84.54
2018-10-02T02:56:51.760Z,85.47
2018-10-02T02:59:23.790Z,85.27
2018-10-02T03:01:55.427Z,85.25
2018-10-02T03:04:26.274Z,85.37
2018-10-02T03:06:58.442Z,85.49
2018-10-02T03:09:29.601Z,84.54
2018-10-02T03:12:00.541Z,85.83
2018-10-02T03:14:32.694Z,85.54
2018-10-02T03:17:04.545Z,85.41
2018-10-02T03:19:35.891Z,85.14
2018-10-02T03:22:06.663Z,85.12
2018-10-02T03:24:38.293Z,85.65
2018-10-02T03:27:09.832Z,85.61
2018-10-02T03:29:41.582Z,85.55
2018-10-02T03:32:12.868Z,86.28
2018-10-02T03:34:44.692Z,85.37
2018-10-02T03:37:16.479Z,85.90
2018-10-02T03:39:48.709Z,85.07
2018-10-02T03:45:09.041Z,85.65
2018-10-02T03:47:46.994Z,85.33
2018-10-02T03:50:21.645Z,85.22
2018-10-02T03:52:54.897Z,85.79
2018-10-02T03:55:28.483Z,85.96
2018-10-02T03:58:02.955Z,85.63
2018-10-02T04:00:37.216Z,85.87
2018-10-02T04:03:12.663Z,86.27
2018-10-02T04:05:49.040Z,85.89
2018-10-02T04:08:30.328Z,85.99
2018-10-02T04:11:04.360Z,86.25
2018-10-02T04:13:39.563Z,86.43
2018-10-02T04:16:10.792Z,86.16
2018-10-02T04:18:42.758Z,86.38
2018-10-02T04:21:15.952Z,86.17
2018-10-02T04:23:47.755Z,86.00
2018-10-02T04:26:19.293Z,86.35
2018-10-02T04:28:51.656Z,87.17
2018-10-02T04:31:23.589Z,87.17
2018-10-02T04:33:55.190Z,87.99
2018-10-02T04:36:26.734Z,87.87
2018-10-02T04:38:58.149Z,87.49
2018-10-02T04:41:29.297Z,88.03
2018-10-02T04:44:00.491Z,88.62
2018-10-02T04:46:32.352Z,88.53
2018-10-02T04:49:05.097Z,88.18
2018-10-02T04:51:36.567Z,88.36
2018-10-02T04:54:07.269Z,88.38
2018-10-02T04:56:39.366Z,88.38
2018-10-02T04:59:10.332Z,88.80
2018-10-02T05:01:41.903Z,88.87
2018-10-02T05:04:15.965Z,88.36
2018-10-02T05:06:50.496Z,88.70
2018-10-02T05:09:23.354Z,88.49
2018-10-02T05:11:54.337Z,88.88
2018-10-02T05:14:25.536Z,89.37
2018-10-02T05:16:58.357Z,89.08
2018-10-02T05:19:30.186Z,88.89
2018-10-02T05:22:01.634Z,88.92
2018-10-02T05:24:33.113Z,88.62
2018-10-02T05:27:05.782Z,88.89
2018-10-02T05:29:37.918Z,89.22
2018-10-02T05:32:09.590Z,89.59
2018-10-02T05:34:41.219Z,88.90
2018-10-02T05:37:12.274Z,89.61
2018-10-02T05:39:42.995Z,89.45
2018-10-02T05:42:18.357Z,90.36
2018-10-02T05:44:52.961Z,90.03
2018-10-02T05:47:30.275Z,90.59
2018-10-02T05:50:12.726Z,90.12
2018-10-02T05:52:46.817Z,90.35
2018-10-02T05:55:19.235Z,90.09
2018-10-02T05:57:50.695Z,90.52
2018-10-02T06:00:22.266Z,90.68
2018-10-02T06:03:00.687Z,90.76
2018-10-02T06:05:32.765Z,90.57
2018-10-02T06:08:04.113Z,90.80
2018-10-02T06:10:36.907Z,91.44
2018-10-02T06:13:08.601Z,91.65
2018-10-02T06:15:54.690Z,90.36
2018-10-02T06:21:17.407Z,91.68
2018-10-02T06:23:50.450Z,91.13
2018-10-02T06:26:21.423Z,91.71
2018-10-02T06:28:52.959Z,90.74
2018-10-02T06:31:25.916Z,91.73
2018-10-02T06:33:56.696Z,92.26
2018-10-02T06:36:30.303Z,91.57
2018-10-02T06:39:22.341Z,92.43
2018-10-02T06:41:54.003Z,91.51
2018-10-02T06:44:26.300Z,91.30
2018-10-02T06:46:59.510Z,90.67
2018-10-02T06:49:30.815Z,90.70
2018-10-02T06:52:05.849Z,90.89
2018-10-02T06:54:40.664Z,90.12
2018-10-02T06:57:11.874Z,89.15
2018-10-02T06:59:48.278Z,89.65
2018-10-02T07:02:20.177Z,88.24
2018-10-02T07:04:53.100Z,88.47
2018-10-02T07:07:25.146Z,87.94
2018-10-02T07:09:56.283Z,88.34
2018-10-02T07:12:27.099Z,88.27
2018-10-02T07:15:12.891Z,87.38
2018-10-02T07:17:44.134Z,87.83
2018-10-02T07:20:14.791Z,87.14
2018-10-02T07:22:57.414Z,87.03
2018-10-02T07:28:26.917Z,86.43
2018-10-02T07:31:01.299Z,85.92
2018-10-02T07:33:33.282Z,86.70
2018-10-02T07:36:08.636Z,86.10
2018-10-02T07:38:46.713Z,85.76
2018-10-02T07:41:19.730Z,86.52
2018-10-02T07:43:57.912Z,85.53
2018-10-02T07:46:33.264Z,85.32
2018-10-02T07:49:05.371Z,85.30
2018-10-02T07:58:46.504Z,85.38
2018-10-02T08:01:18.108Z,84.82
2018-10-02T08:17:41.466Z,86.22
2018-10-02T08:20:13.612Z,87.03
2018-10-02T08:22:44.095Z,88.65
2018-10-02T08:25:14.710Z,90.14
2018-10-02T08:27:44.902Z,91.51
2018-10-02T08:30:14.989Z,91.71
2018-10-02T08:32:46.118Z,91.23
2018-10-02T08:35:17.267Z,92.22
2018-10-02T08:37:48.341Z,92.23
2018-10-02T08:40:20.101Z,92.70
2018-10-02T08:42:51.251Z,93.08
2018-10-02T08:45:23.150Z,92.70
2018-10-02T08:47:55.433Z,93.21
2018-10-02T08:50:27.828Z,93.16
2018-10-02T08:52:58.237Z,93.18
2018-10-02T08:55:29.534Z,93.78
2018-10-02T08:57:59.526Z,93.68
2018-10-02T09:00:33.260Z,94.24
2018-10-02T09:03:04.598Z,94.23
2018-10-02T09:05:34.721Z,95.19
2018-10-02T09:08:05.971Z,95.19
2018-10-02T09:11:05.486Z,94.44
2018-10-02T09:13:36.590Z,94.50
2018-10-02T09:16:07.973Z,97.59
2018-10-02T09:18:38.187Z,95.58
2018-10-02T09:21:18.296Z,95.62
2018-10-02T09:23:51.127Z,95.99
2018-10-02T09:26:22.782Z,96.26
2018-10-02T09:28:55.875Z,95.90
2018-10-02T09:31:31.113Z,95.61
2018-10-02T09:34:06.858Z,95.31
2018-10-02T09:36:42.879Z,95.67
2018-10-02T09:39:19.778Z,95.23
2018-10-02T09:42:07.143Z,95.43
2018-10-02T09:44:37.549Z,95.41
2018-10-02T09:47:09.204Z,94.89
2018-10-02T09:49:42.263Z,95.38
2018-10-02T09:52:13.397Z,94.00
2018-10-02T09:54:44.285Z,94.82
2018-10-02T09:57:17.209Z,93.97
2018-10-02T09:59:49.095Z,94.82
2018-10-02T10:02:24.658Z,94.24
2018-10-02T10:04:55.562Z,93.52
2018-10-02T10:07:26.078Z,94.21
2018-10-02T10:09:58.072Z,94.07
2018-10-02T10:12:28.275Z,94.20
2018-10-02T10:14:58.903Z,94.17
2018-10-02T10:17:33.152Z,94.62
2018-10-02T10:20:04.672Z,93.63
2018-10-02T10:22:34.892Z,94.49
2018-10-02T10:25:06.750Z,94.63
2018-10-02T10:27:36.865Z,94.83
2018-10-02T10:30:07.674Z,95.33
2018-10-02T10:32:40.278Z,95.82
2018-10-02T10:35:10.724Z,95.69
2018-10-02T10:37:41.869Z,95.91
2018-10-02T10:40:12.383Z,96.06
2018-10-02T10:42:42.349Z,96.48
2018-10-02T10:45:15.594Z,96.42
2018-10-02T10:47:47.343Z,96.06
2018-10-02T10:50:17.807Z,96.10
2018-10-02T10:52:48.964Z,95.82
2018-10-02T10:55:26.787Z,96.45
2018-10-02T10:57:57.575Z,96.41
2018-10-02T11:00:29.638Z,96.38
2018-10-02T11:03:01.496Z,95.59
2018-10-02T11:05:32.796Z,96.70
2018-10-02T11:08:03.175Z,96.89
2018-10-02T11:10:34.259Z,97.07
2018-10-02T11:13:04.519Z,97.24
2018-10-02T11:15:36.681Z,96.95
2018-10-02T11:18:11.719Z,97.79
2018-10-02T11:20:44.806Z,98.24
2018-10-02T11:23:15.026Z,97.17
2018-10-02T11:25:49.560Z,97.68
2018-10-02T11:28:20.603Z,96.98
2018-10-02T11:30:58.915Z,97.54
2018-10-02T11:33:33.992Z,97.89
2018-10-02T11:36:04.306Z,97.65
2018-10-02T11:38:35.286Z,97.59
2018-10-02T11:41:05.397Z,97.57
2018-10-02T11:43:36.925Z,98.05
2018-10-02T11:46:10.470Z,98.16
2018-10-02T11:48:42.848Z,97.99
2018-10-02T11:51:17.755Z,98.30
2018-10-02T11:53:48.098Z,98.39
2018-10-02T11:56:20.357Z,98.45
2018-10-02T11:58:52.934Z,98.65
2018-10-02T12:01:24.226Z,98.70
2018-10-02T12:03:54.421Z,99.22
2018-10-02T12:06:24.726Z,98.71
2018-10-02T12:08:56.696Z,98.42
2018-10-02T12:11:27.724Z,99.17
2018-10-02T12:13:58.099Z,99.44
2018-10-02T12:16:29.428Z,99.25
2018-10-02T12:19:01.005Z,99.54
2018-10-02T12:26:39.902Z,99.66
2018-10-02T12:29:10.469Z,99.41
2018-10-02T12:31:41.329Z,98.74
2018-10-02T12:34:11.326Z,98.64
2018-10-02T12:36:44.099Z,98.84
2018-10-02T12:39:14.184Z,98.90
2018-10-02T12:41:49.863Z,98.51
2018-10-02T12:44:21.097Z,98.52
2018-10-02T12:46:51.487Z,98.01
2018-10-02T12:49:24.491Z,98.46
2018-10-02T12:51:58.180Z,97.78
2018-10-02T12:54:28.755Z,98.20
2018-10-02T12:56:59.385Z,98.09
2018-10-02T12:59:30.704Z,98.64
2018-10-02T13:02:04.950Z,98.01
2018-10-02T13:05:10.127Z,98.69
2018-10-02T13:07:41.269Z,97.95
2018-10-02T13:10:11.642Z,98.54
2018-10-02T13:12:44.257Z,97.10
2018-10-02T13:15:19.718Z,96.75
2018-10-02T13:17:52.777Z,96.50
2018-10-02T13:20:24.300Z,95.94
2018-10-02T13:23:00.934Z,93.63
2018-10-02T13:25:35.162Z,90.64
2018-10-02T13:28:06.920Z,88.96
2018-10-02T13:30:41.976Z,86.39
2018-10-02T13:33:13.875Z,84.51
2018-10-02T13:35:47.079Z,81.87
2018-10-02T13:38:18.116Z,80.46
2018-10-02T13:40:51.123Z,80.97
2018-10-02T13:43:23.141Z,81.95
2018-10-02T13:45:54.293Z,80.28
2018-10-02T13:48:25.631Z,80.97
2018-10-02T13:50:56.518Z,80.40
2018-10-02T13:53:26.710Z,79.13
2018-10-02T13:55:56.725Z,80.15
2018-10-02T13:58:28.110Z,81.02
2018-10-02T14:00:58.356Z,79.40
2018-10-02T14:03:28.637Z,79.60
2018-10-02T14:05:59.555Z,78.59
2018-10-02T14:08:30.113Z,79.00
2018-10-02T14:11:01.173Z,75.81
2018-10-02T14:13:32.824Z,76.21
2018-10-02T14:21:35.059Z,74.64
2018-10-02T14:24:05.451Z,73.57
2018-10-02T14:26:37.247Z,73.78
2018-10-02T14:29:07.833Z,74.34
2018-10-02T14:31:38.560Z,75.62
2018-10-02T14:34:10.715Z,72.68
2018-10-02T14:39:26.738Z,68.16
2018-10-02T14:41:57.084Z,69.06
2018-10-02T14:44:32.929Z,66.72
2018-10-02T14:47:03.783Z,67.44
2018-10-02T14:49:34.853Z,68.27
2018-10-02T14:52:11.290Z,69.44
2018-10-02T14:54:41.563Z,69.31
2018-10-02T14:57:12.732Z,67.96
2018-10-02T14:59:43.663Z,68.89
2018-10-02T15:02:14.293Z,68.19
2018-10-02T15:04:48.688Z,69.43
2018-10-02T15:07:20.582Z,71.34
2018-10-02T15:09:51.819Z,70.98
2018-10-02T15:12:22.852Z,70.99
2018-10-02T15:14:54.410Z,70.58
2018-10-02T15:17:25.407Z,70.58
2018-10-02T15:19:55.632Z,71.87
2018-10-02T15:22:26.043Z,70.30
2018-10-02T15:24:56.746Z,70.31
2018-10-02T15:27:45.501Z,69.75
2018-10-02T15:30:16.131Z,70.16
2018-10-02T15:32:47.590Z,70.70
2018-10-02T15:35:21.986Z,69.62
2018-10-02T15:37:52.487Z,70.33
2018-10-02T15:40:24.812Z,70.44
2018-10-02T15:42:56.134Z,70.29
2018-10-02T15:48:12.479Z,70.54
2018-10-02T15:50:43.635Z,70.43
2018-10-02T15:53:18.227Z,71.62
2018-10-02T15:58:44.696Z,72.30
2018-10-02T16:01:18.361Z,72.86
2018-10-02T16:03:49.344Z,75.00
2018-10-02T16:06:21.484Z,76.49
2018-10-02T16:08:56.974Z,75.94
2018-10-02T16:11:28.534Z,75.61
2018-10-02T16:14:10.175Z,78.13
2018-10-02T16:16:42.443Z,75.79
2018-10-02T16:19:15.277Z,75.86
2018-10-02T16:21:49.757Z,74.67
2018-10-02T16:24:23.969Z,72.24
2018-10-02T16:26:56.812Z,71.29
2018-10-02T16:29:28.400Z,72.70
2018-10-02T16:32:09.238Z,71.69
2018-10-02T16:34:49.282Z,71.20
2018-10-02T16:37:10.940Z,70.37
2018-10-02T16:39:49.649Z,72.13
2018-10-02T16:42:23.059Z,72.19
2018-10-02T16:44:56.152Z,71.78
2018-10-02T16:47:43.314Z,71.22
2018-10-02T16:53:00.014Z,71.40
2018-10-02T16:58:19.707Z,70.68
2018-10-02T17:01:00.780Z,70.51
2018-10-02T17:03:34.702Z,69.50
2018-10-02T17:06:09.165Z,70.21
2018-10-02T17:08:52.148Z,70.36
2018-10-02T17:11:36.845Z,70.82
2018-10-02T17:14:18.441Z,70.60
2018-10-02T17:16:50.777Z,71.41
2018-10-02T17:19:22.803Z,71.11
2018-10-02T17:21:54.198Z,71.70
2018-10-02T17:24:26.561Z,71.67
2018-10-02T17:26:57.152Z,71.82
2018-10-02T17:29:27.930Z,72.56
2018-10-02T17:31:58.933Z,72.26
2018-10-02T17:34:29.603Z,72.25
2018-10-02T17:36:59.582Z,72.36
2018-10-02T17:39:29.656Z,73.42
2018-10-02T17:41:59.993Z,73.32
2018-10-02T17:44:30.174Z,73.49
2018-10-02T17:47:01.411Z,73.34
2018-10-02T17:49:32.116Z,73.81
2018-10-02T17:52:04.730Z,73.54
2018-10-02T17:54:35.534Z,73.50
2018-10-02T17:57:06.282Z,74.01
2018-10-02T17:59:36.804Z,73.77
2018-10-02T18:02:07.935Z,73.99
2018-10-02T18:04:38.471Z,73.89
2018-10-02T18:07:09.412Z,74.73
2018-10-02T18:09:41.948Z,75.18
2018-10-02T18:12:12.978Z,74.57
2018-10-02T18:14:43.826Z,74.96
2018-10-02T18:17:16.142Z,75.05
2018-10-02T18:19:46.080Z,76.08
2018-10-02T18:22:16.260Z,76.48
2018-10-02T18:25:11.085Z,78.05
2018-10-02T18:27:44.979Z,77.85
2018-10-02T18:30:16.948Z,76.97
2018-10-02T18:32:54.259Z,75.66
2018-10-02T18:35:27.688Z,76.08
2018-10-02T18:37:57.828Z,75.79
2018-10-02T18:40:28.088Z,75.46
2018-10-02T18:42:58.224Z,75.78
2018-10-02T18:45:28.407Z,75.26
2018-10-02T18:47:59.500Z,75.55
2018-10-02T18:50:30.283Z,76.53
2018-10-02T18:53:00.958Z,75.56
2018-10-02T18:55:31.585Z,74.42
2018-10-02T18:58:02.334Z,73.50
2018-10-02T19:00:33.009Z,73.71
2018-10-02T19:03:04.828Z,72.51
2018-10-02T19:05:35.848Z,72.42
2018-10-02T19:08:07.711Z,72.36
2018-10-02T19:10:40.188Z,72.44
2018-10-02T19:13:11.194Z,72.71
2018-10-02T19:15:46.464Z,72.01
2018-10-02T19:18:16.718Z,72.28
2018-10-02T19:20:51.721Z,72.54
2018-10-02T19:23:22.525Z,73.26
2018-10-02T19:25:58.054Z,74.24
2018-10-02T19:28:32.086Z,74.51
2018-10-02T19:31:07.658Z,74.96
2018-10-02T19:33:39.678Z,75.55
2018-10-02T19:38:51.374Z,76.55
2018-10-02T19:41:22.439Z,77.70
2018-10-02T19:43:54.179Z,77.73
2018-10-02T19:46:29.396Z,78.14
2018-10-02T19:48:59.770Z,78.34
2018-10-02T19:51:34.918Z,79.63
2018-10-02T19:54:06.935Z,81.80
2018-10-02T19:56:37.135Z,82.52
2018-10-02T19:59:09.111Z,82.44
2018-10-02T20:01:40.635Z,81.96
2018-10-02T20:04:11.860Z,81.36
2018-10-02T20:06:42.218Z,81.71
2018-10-02T20:09:13.232Z,81.55
2018-10-02T20:11:44.282Z,81.52
2018-10-02T20:14:16.297Z,81.12
2018-10-02T20:16:50.234Z,81.74
2018-10-02T20:19:20.455Z,81.12
2018-10-02T20:21:50.920Z,80.71
2018-10-02T20:24:21.109Z,80.65
2018-10-02T20:26:52.004Z,78.88
2018-10-02T20:29:21.961Z,78.43
2018-10-02T20:31:53.923Z,78.72
2018-10-02T20:34:23.973Z,78.99
2018-10-02T20:36:54.081Z,78.90
2018-10-02T20:39:24.843Z,79.77
2018-10-02T20:41:54.745Z,79.41
2018-10-02T20:44:24.933Z,79.80
2018-10-02T20:46:55.045Z,80.16
2018-10-02T20:49:26.054Z,79.93
2018-10-02T20:51:57.061Z,79.94
2018-10-02T20:54:28.148Z,80.27
2018-10-02T20:56:58.708Z,80.06
2018-10-02T20:59:29.844Z,80.77
2018-10-02T21:02:00.173Z,78.90
2018-10-02T21:04:31.965Z,78.69
2018-10-02T21:07:02.438Z,78.41
2018-10-02T21:09:33.838Z,79.63
2018-10-02T21:12:04.019Z,79.25
2018-10-02T21:14:34.656Z,79.61
2018-10-02T21:17:04.888Z,80.55
2018-10-02T21:19:34.916Z,80.90
2018-10-02T21:22:05.144Z,81.38
2018-10-02T21:24:35.489Z,81.72
2018-10-02T21:27:06.189Z,81.62
2018-10-02T21:29:36.559Z,82.01
2018-10-02T21:32:08.194Z,81.63
2018-10-02T21:34:39.167Z,81.59
2018-10-02T21:37:09.667Z,81.39
2018-10-02T21:39:40.668Z,81.95
2018-10-02T21:42:10.911Z,80.78
2018-10-02T21:44:41.843Z,79.76
2018-10-02T21:47:12.045Z,79.88
2018-10-02T21:49:41.983Z,80.23
2018-10-02T21:52:12.780Z,79.72
2018-10-02T21:54:43.126Z,79.41
2018-10-02T21:57:14.018Z,79.73
2018-10-02T21:59:44.571Z,79.29
2018-10-02T22:02:14.692Z,79.56
2018-10-02T22:04:44.933Z,79.86
2018-10-02T22:07:14.902Z,79.70
2018-10-02T22:09:44.809Z,79.62
2018-10-02T22:12:15.552Z,79.23
2018-10-02T22:14:45.865Z,78.84
2018-10-02T22:17:16.214Z,79.38
2018-10-02T22:19:46.654Z,79.75
2018-10-02T22:22:17.181Z,80.36
2018-10-02T22:24:47.674Z,80.21
2018-10-02T22:27:18.015Z,80.38
2018-10-02T22:29:48.189Z,79.64
2018-10-02T22:32:18.096Z,80.28
2018-10-02T22:34:48.357Z,79.11
2018-10-02T22:37:18.592Z,78.68
2018-10-02T22:39:49.800Z,77.01
2018-10-02T22:42:19.754Z,77.15
2018-10-02T22:44:50.019Z,76.57
2018-10-02T22:49:38.432Z,75.66
2018-10-02T22:52:08.619Z,76.06
2018-10-02T22:54:39.042Z,76.93
2018-10-02T22:57:08.992Z,77.56
2018-10-02T22:59:39.050Z,76.73
2018-10-02T23:02:09.312Z,76.59
2018-10-02T23:04:40.207Z,76.70
2018-10-02T23:07:10.710Z,77.20
2018-10-02T23:09:41.009Z,77.58
2018-10-02T23:12:11.259Z,78.03
2018-10-02T23:14:41.822Z,78.92
2018-10-02T23:17:12.304Z,78.82
2018-10-02T23:19:43.655Z,79.53
2018-10-02T23:22:14.392Z,79.99
2018-10-02T23:24:44.435Z,81.22
2018-10-02T23:27:15.527Z,80.94
2018-10-02T23:29:46.271Z,81.57
2018-10-02T23:32:17.313Z,81.56
2018-10-02T23:34:47.528Z,81.21
2018-10-02T23:37:17.987Z,81.28
2018-10-02T23:39:49.109Z,81.18
2018-10-02T23:42:19.848Z,81.29
2018-10-02T23:44:50.377Z,81.73
2018-10-02T23:47:20.783Z,81.33
2018-10-02T23:49:51.139Z,81.26
2018-10-02T23:52:21.376Z,81.04
2018-10-02T23:54:53.321Z,80.76
2018-10-02T23:57:23.781Z,79.83
2018-10-02T23:59:54.425Z,80.27
